Pagrindinis puslapis
METAR-TAF:

METAR-TAF

Oro uostai :

Zamboanga, Filipinai

platuma: 06-54N, ilguma: 122-04E, Aukštis: 5 m

Dabartinis oras

Ataskaita buvo paskelbta 31 minutes, ne 01:00 UTC
Vėjas 2 kt nuo kintamojo kryptimis
Temperatūra 28°C
Drėgmė 84%
Slėgis 1010 hPa
Matomumas 10 km arba daugiau
Mažai debesys ne aukštis 1700 ft
Su prošvaistėmis ne aukštis 9000 ft

METAR: RPMZ 290100Z VRB02KT 9999 FEW017 BKN090 28/25 Q1010 RMK A2983

Laikas: 09:31 (01:31 UTC)

Prognozė

Ataskaita buvo paskelbta 2 valandos ir 31 minutes, ne 23:00 UTC
Prognozė galioja nuo 29 metu 00 UTC su 29 metu 24 UTC
Vėjas 5 kt iš Vakarų
Matomumas 10 km arba daugiau
Mažai debesys ne aukštis 1700 ft
Išsisklaidę debesys ne aukštis 9000 ft
Su prošvaistėmis ne aukštis 30000 ft
Laikinai
nuo 29 metu 00 UTC su 29 metu 06 UTC
Vėjas 5 kt nuo kintamojo kryptimis
Išsisklaidę debesys ne aukštis 1600 ft, Liūtiniai kamuoliniai debesys.
Apsiniaukę ne aukštis 9000 ft
lietus

TAF: RPMZ 282300Z 2900/2924 27005KT 9999 FEW017 SCT090 BKN300 TEMPO 2900/2906 VRB05KT -SHRA SCT016CB OVC090

Orai ataskaitas ir orų prognozės (METAR, TAF).

turimą stotys yra geltonos ir raudonos taškus žemėlapyje.

Perkelti pele per norėdami pamatyti stoties vardą.

Tada spustelėkite, norėdami matyti oro stebėjimo ir prognozės.

Norėdami pakeisti žemėlapį: spustelėkite ant žalios mygtukų su juodo kryžiaus žemyn,; žalią mygtuką su brūkšneliu, jei norite nutolinti; arba žalių rodyklių gretimoms žemėlapius.


METAR-TAF: